Time;durP1;ratioP1;P1;durP2;ratioP2;P2;SDS_P1;SDS_P2;PMS_P1;PMS_P2;Temp;Humidity;BMP_temperature;BMP_pressure;BME280_temperature;BME280_humidity;BME280_pressure;Samples;Min_cycle;Max_cycle;Signal;HPM_P1;HPM_P2
2024/04/20 00:01:30;;;;;;;;;;;;;;;-128.00;-1.00;-1.00;103253;1254;1003225;-73
2024/04/20 00:03:58;;;;;;;;;;;;;;;-128.00;-1.00;-1.00;103277;1254;1004899;-74
2024/04/20 00:06:28;;;;;;;;;;;;;;;-128.00;-1.00;-1.00;103263;1260;1002651;-73
2024/04/20 00:08:58;;;;;;;;;;;;;;;-128.00;-1.00;-1.00;103240;1260;1012502;-73
2024/04/20 00:11:27;;;;;;;;;;;;;;;-128.00;-1.00;-1.00;103266;1254;1003313;-73
2024/04/20 00:13:55;;;;;;;;;;;;;;;-128.00;-1.00;-1.00;103215;1254;1010776;-72
2024/04/20 00:16:22;;;;;;;;;;;;;;;-128.00;-1.00;-1.00;103236;1260;1002291;-73
2024/04/20 00:18:50;;;;;;;;;;;;;;;-128.00;-1.00;-1.00;103182;1260;1002730;-73
2024/04/20 00:21:17;;;;;;;;;;;;;;;-128.00;-1.00;-1.00;103259;1254;1002637;-74
2024/04/20 00:23:44;;;;;;;;;;;;;;;-128.00;-1.00;-1.00;103337;1260;1002642;-73
2024/04/20 00:26:13;;;;;;;;;;;;;;;-128.00;-1.00;-1.00;103201;1257;1002759;-72
2024/04/20 00:28:40;;;;;;;;;;;;;;;-128.00;-1.00;-1.00;103166;1257;1013266;-73
2024/04/20 00:31:08;;;;;;;;;;;;;;;-128.00;-1.00;-1.00;103084;1264;1004047;-73
2024/04/20 00:33:35;;;;;;;;;;;;;;;-128.00;-1.00;-1.00;103083;1262;1002468;-73
2024/04/20 00:36:03;;;;;;;;;;;;;;;-128.00;-1.00;-1.00;103097;1257;1002451;-73
2024/04/20 00:38:30;;;;;;;;;;;;;;;-128.00;-1.00;-1.00;103060;1258;1003284;-72
2024/04/20 00:40:58;;;;;;;;;;;;;;;-128.00;-1.00;-1.00;103157;1263;1002617;-71
2024/04/20 00:43:25;;;;;;;;;;;;;;;-128.00;-1.00;-1.00;103194;1257;1004676;-74
2024/04/20 00:45:54;;;;;;;;;;;;;;;-128.00;-1.00;-1.00;103207;1262;1004173;-71
2024/04/20 00:48:22;;;;;;;;;;;;;;;-128.00;-1.00;-1.00;102859;1257;1014924;-73
2024/04/20 00:50:50;;;;;;;;;;;;;;;-128.00;-1.00;-1.00;103141;1257;1003082;-72
2024/04/20 00:53:17;;;;;;;;;;;;;;;-128.00;-1.00;-1.00;103014;1262;1003528;-73
2024/04/20 00:55:44;;;;;;;;;;;;;;;-128.00;-1.00;-1.00;102914;1264;1002503;-72
2024/04/20 00:58:13;;;;;;;;;;;;;;;-128.00;-1.00;-1.00;103165;1260;1003040;-73
2024/04/20 01:00:41;;;;;;;;;;;;;;;-128.00;-1.00;-1.00;103253;1253;1016241;-71
2024/04/20 01:03:08;;;;;;;;;;;;;;;-128.00;-1.00;-1.00;103286;1262;1003013;-71
2024/04/20 01:05:36;;;;;;;;;;;;;;;-128.00;-1.00;-1.00;103293;1254;1002425;-73
2024/04/20 01:08:04;;;;;;;;;;;;;;;-128.00;-1.00;-1.00;103207;1260;1003047;-70
2024/04/20 01:10:31;;;;;;;;;;;;;;;-128.00;-1.00;-1.00;103229;1255;1002457;-74
2024/04/20 01:13:06;;;;;;;;;;;;;;;-128.00;-1.00;-1.00;103120;1257;1002428;-73
2024/04/20 01:15:33;;;;;;;;;;;;;;;-128.00;-1.00;-1.00;103169;1257;1009678;-72
2024/04/20 01:18:01;;;;;;;;;;;;;;;-128.00;-1.00;-1.00;103094;1256;1002651;-72
2024/04/20 01:20:29;;;;;;;;;;;;;;;-128.00;-1.00;-1.00;102993;1262;1002243;-71
2024/04/20 01:22:58;;;;;;;;;;;;;;;-128.00;-1.00;-1.00;103097;1257;1003252;-72
2024/04/20 01:25:27;;;;;;;;;;;;;;;-128.00;-1.00;-1.00;102704;1263;1013197;-71
2024/04/20 01:27:54;;;;;;;;;;;;;;;-128.00;-1.00;-1.00;102959;1257;1002746;-72
2024/04/20 01:30:22;;;;;;;;;;;;;;;-128.00;-1.00;-1.00;102673;1264;1003158;-71
2024/04/20 01:32:49;;;;;;;;;;;;;;;-128.00;-1.00;-1.00;102932;1263;1002973;-71
2024/04/20 01:35:18;;;;;;;;;;;;;;;-128.00;-1.00;-1.00;102978;1263;1002687;-71
2024/04/20 01:37:46;;;;;;;;;;;;;;;-128.00;-1.00;-1.00;102745;1257;1012763;-72
2024/04/20 01:40:14;;;;;;;;;;;;;;;-128.00;-1.00;-1.00;102989;1262;1003638;-73
2024/04/20 01:42:41;;;;;;;;;;;;;;;-128.00;-1.00;-1.00;103023;1262;1002594;-72
2024/04/20 01:45:09;;;;;;;;;;;;;;;-128.00;-1.00;-1.00;103137;1256;1002796;-71
2024/04/20 01:47:36;;;;;;;;;;;;;;;-128.00;-1.00;-1.00;103174;1256;1003042;-71
2024/04/20 01:50:04;;;;;;;;;;;;;;;-128.00;-1.00;-1.00;103162;1260;1002964;-72
2024/04/20 01:52:31;;;;;;;;;;;;;;;-128.00;-1.00;-1.00;103158;1260;1003165;-72
2024/04/20 01:54:59;;;;;;;;;;;;;;;-128.00;-1.00;-1.00;103160;1260;1003712;-72
2024/04/20 01:57:27;;;;;;;;;;;;;;;-128.00;-1.00;-1.00;103077;1260;1003136;-71
2024/04/20 01:59:54;;;;;;;;;;;;;;;-128.00;-1.00;-1.00;103085;1260;1002539;-72
2024/04/20 02:02:21;;;;;;;;;;;;;;;-128.00;-1.00;-1.00;103111;1257;1003025;-72
2024/04/20 02:04:49;;;;;;;;;;;;;;;-128.00;-1.00;-1.00;103229;1260;1003092;-70
2024/04/20 02:07:17;;;;;;;;;;;;;;;-128.00;-1.00;-1.00;103218;1256;1002646;-72
2024/04/20 02:09:44;;;;;;;;;;;;;;;-128.00;-1.00;-1.00;103150;1256;1004547;-72
2024/04/20 02:12:12;;;;;;;;;;;;;;;-128.00;-1.00;-1.00;102691;1256;1003108;-73
2024/04/20 02:14:39;;;;;;;;;;;;;;;-128.00;-1.00;-1.00;103130;1256;1002663;-73
2024/04/20 02:17:07;;;;;;;;;;;;;;;-128.00;-1.00;-1.00;103141;1256;1002942;-72
2024/04/20 02:19:34;;;;;;;;;;;;;;;-128.00;-1.00;-1.00;103189;1256;1002846;-73
2024/04/20 02:22:01;;;;;;;;;;;;;;;-128.00;-1.00;-1.00;103121;1257;1002036;-70
2024/04/20 02:24:29;;;;;;;;;;;;;;;-128.00;-1.00;-1.00;103121;1256;1004607;-72
2024/04/20 02:26:57;;;;;;;;;;;;;;;-128.00;-1.00;-1.00;103098;1256;1002922;-70
2024/04/20 02:29:24;;;;;;;;;;;;;;;-128.00;-1.00;-1.00;103066;1256;1002631;-72
2024/04/20 02:31:52;;;;;;;;;;;;;;;-128.00;-1.00;-1.00;103069;1258;1004120;-72
2024/04/20 02:34:19;;;;;;;;;;;;;;;-128.00;-1.00;-1.00;102996;1257;1002795;-70
2024/04/20 02:36:47;;;;;;;;;;;;;;;-128.00;-1.00;-1.00;102941;1257;1002463;-72
2024/04/20 02:39:14;;;;;;;;;;;;;;;-128.00;-1.00;-1.00;102977;1257;1002337;-73
2024/04/20 02:41:41;;;;;;;;;;;;;;;-128.00;-1.00;-1.00;102925;1257;1002793;-68
2024/04/20 02:44:09;;;;;;;;;;;;;;;-128.00;-1.00;-1.00;102692;1256;1002118;-72
2024/04/20 02:46:37;;;;;;;;;;;;;;;-128.00;-1.00;-1.00;102986;1260;1004578;-72
2024/04/20 02:49:04;;;;;;;;;;;;;;;-128.00;-1.00;-1.00;102939;1262;1002941;-72
2024/04/20 02:51:32;;;;;;;;;;;;;;;-128.00;-1.00;-1.00;102960;1258;1004144;-69
2024/04/20 02:53:59;;;;;;;;;;;;;;;-128.00;-1.00;-1.00;102932;1257;1003556;-70
2024/04/20 02:56:27;;;;;;;;;;;;;;;-128.00;-1.00;-1.00;102964;1257;1003249;-73
2024/04/20 02:58:56;;;;;;;;;;;;;;;-128.00;-1.00;-1.00;102907;1257;1002669;-72
2024/04/20 03:01:23;;;;;;;;;;;;;;;-128.00;-1.00;-1.00;102946;1257;1013544;-72
2024/04/20 03:03:51;;;;;;;;;;;;;;;-128.00;-1.00;-1.00;102988;1260;1002596;-72
2024/04/20 03:06:21;;;;;;;;;;;;;;;-128.00;-1.00;-1.00;102662;1262;1005355;-71
2024/04/20 03:08:48;;;;;;;;;;;;;;;-128.00;-1.00;-1.00;103075;1260;1011425;-70
2024/04/20 03:11:16;;;;;;;;;;;;;;;-128.00;-1.00;-1.00;102883;1256;1004178;-71
2024/04/20 03:13:43;;;;;;;;;;;;;;;-128.00;-1.00;-1.00;103165;1256;1004103;-72
2024/04/20 03:16:12;;;;;;;;;;;;;;;-128.00;-1.00;-1.00;103310;1256;1002026;-72
2024/04/20 03:18:39;;;;;;;;;;;;;;;-128.00;-1.00;-1.00;103155;1256;1010300;-71
2024/04/20 03:21:07;;;;;;;;;;;;;;;-128.00;-1.00;-1.00;103211;1256;1002648;-73
2024/04/20 03:23:34;;;;;;;;;;;;;;;-128.00;-1.00;-1.00;103232;1260;1002742;-73
2024/04/20 03:26:02;;;;;;;;;;;;;;;-128.00;-1.00;-1.00;103182;1260;1002621;-73
2024/04/20 03:28:30;;;;;;;;;;;;;;;-128.00;-1.00;-1.00;103230;1257;1002585;-73
2024/04/20 03:30:57;;;;;;;;;;;;;;;-128.00;-1.00;-1.00;103254;1256;1004277;-72
2024/04/20 03:33:30;;;;;;;;;;;;;;;-128.00;-1.00;-1.00;103261;1260;1002732;-72
2024/04/20 03:35:58;;;;;;;;;;;;;;;-128.00;-1.00;-1.00;102965;1256;1017277;-73
2024/04/20 03:38:25;;;;;;;;;;;;;;;-128.00;-1.00;-1.00;103370;1256;1002954;-73
2024/04/20 03:40:53;;;;;;;;;;;;;;;-128.00;-1.00;-1.00;103300;1256;1003554;-72
2024/04/20 03:43:21;;;;;;;;;;;;;;;-128.00;-1.00;-1.00;103160;1261;1002721;-72
2024/04/20 03:45:54;;;;;;;;;;;;;;;-128.00;-1.00;-1.00;103596;1257;1011040;-73
2024/04/20 03:48:22;;;;;;;;;;;;;;;-128.00;-1.00;-1.00;103282;1256;1014147;-73
2024/04/20 03:50:56;;;;;;;;;;;;;;;-128.00;-1.00;-1.00;103188;1260;1002521;-73
2024/04/20 03:53:24;;;;;;;;;;;;;;;-128.00;-1.00;-1.00;103098;1262;1013107;-73
2024/04/20 03:55:54;;;;;;;;;;;;;;;-128.00;-1.00;-1.00;103162;1256;1002471;-71
2024/04/20 03:58:22;;;;;;;;;;;;;;;-128.00;-1.00;-1.00;103127;1256;1010817;-72
2024/04/20 04:00:49;;;;;;;;;;;;;;;-128.00;-1.00;-1.00;103215;1256;1002507;-72
2024/04/20 04:03:22;;;;;;;;;;;;;;;-128.00;-1.00;-1.00;103222;1256;1002838;-72
2024/04/20 04:05:50;;;;;;;;;;;;;;;-128.00;-1.00;-1.00;103187;1256;1012283;-73
2024/04/20 04:08:18;;;;;;;;;;;;;;;-128.00;-1.00;-1.00;103206;1256;1004146;-73
2024/04/20 04:10:45;;;;;;;;;;;;;;;-128.00;-1.00;-1.00;103159;1256;1002234;-73
2024/04/20 04:13:14;;;;;;;;;;;;;;;-128.00;-1.00;-1.00;103190;1256;1002832;-72
2024/04/20 04:15:41;;;;;;;;;;;;;;;-128.00;-1.00;-1.00;103138;1256;1013307;-75
2024/04/20 04:18:09;;;;;;;;;;;;;;;-128.00;-1.00;-1.00;103145;1256;1003112;-74
2024/04/20 04:20:36;;;;;;;;;;;;;;;-128.00;-1.00;-1.00;103165;1256;1003285;-72
2024/04/20 04:23:05;;;;;;;;;;;;;;;-128.00;-1.00;-1.00;103311;1260;1002769;-75
2024/04/20 04:25:35;;;;;;;;;;;;;;;-128.00;-1.00;-1.00;105349;1253;1013052;-75
2024/04/20 04:28:03;;;;;;;;;;;;;;;-128.00;-1.00;-1.00;106457;1254;1013055;-73
2024/04/20 04:30:32;;;;;;;;;;;;;;;-128.00;-1.00;-1.00;106646;1254;1012193;-77
2024/04/20 04:33:36;;;;;;;;;;;;;;;-128.00;-1.00;-1.00;106625;1254;1010378;-74
2024/04/20 04:36:04;;;;;;;;;;;;;;;-128.00;-1.00;-1.00;103396;1253;1010978;-74
2024/04/20 04:38:31;;;;;;;;;;;;;;;-128.00;-1.00;-1.00;103218;1254;1002947;-75
2024/04/20 04:41:00;;;;;;;;;;;;;;;-128.00;-1.00;-1.00;103222;1260;1013455;-76
2024/04/20 04:43:28;;;;;;;;;;;;;;;-128.00;-1.00;-1.00;103122;1257;1002829;-74
2024/04/20 04:45:55;;;;;;;;;;;;;;;-128.00;-1.00;-1.00;103070;1256;1002425;-75
2024/04/20 04:48:26;;;;;;;;;;;;;;;-128.00;-1.00;-1.00;103152;1262;1002445;-76
2024/04/20 04:50:54;;;;;;;;;;;;;;;-128.00;-1.00;-1.00;102958;1257;1013671;-74
2024/04/20 04:53:22;;;;;;;;;;;;;;;-128.00;-1.00;-1.00;103145;1259;1002770;-76
2024/04/20 04:55:49;;;;;;;;;;;;;;;-128.00;-1.00;-1.00;103056;1257;1002931;-74
2024/04/20 04:58:17;;;;;;;;;;;;;;;-128.00;-1.00;-1.00;103105;1258;1003106;-75
2024/04/20 05:00:46;;;;;;;;;;;;;;;-128.00;-1.00;-1.00;102871;1260;1003681;-75
2024/04/20 05:03:13;;;;;;;;;;;;;;;-128.00;-1.00;-1.00;102692;1257;1014311;-73
2024/04/20 05:05:48;;;;;;;;;;;;;;;-128.00;-1.00;-1.00;103014;1257;1002736;-73
2024/04/20 05:08:16;;;;;;;;;;;;;;;-128.00;-1.00;-1.00;103025;1257;1012705;-74
2024/04/20 05:10:43;;;;;;;;;;;;;;;-128.00;-1.00;-1.00;103008;1256;1003174;-73
2024/04/20 05:13:10;;;;;;;;;;;;;;;-128.00;-1.00;-1.00;103072;1257;1002559;-74
2024/04/20 05:15:38;;;;;;;;;;;;;;;-128.00;-1.00;-1.00;102926;1257;1002988;-76
2024/04/20 05:18:06;;;;;;;;;;;;;;;-128.00;-1.00;-1.00;103113;1259;1002467;-75
2024/04/20 05:20:35;;;;;;;;;;;;;;;-128.00;-1.00;-1.00;103130;1257;1013122;-74
2024/04/20 05:23:03;;;;;;;;;;;;;;;-128.00;-1.00;-1.00;103257;1254;1009708;-74
2024/04/20 05:25:31;;;;;;;;;;;;;;;-128.00;-1.00;-1.00;103175;1254;1002916;-75
2024/04/20 05:27:58;;;;;;;;;;;;;;;-128.00;-1.00;-1.00;103185;1254;1002718;-74
2024/04/20 05:30:25;;;;;;;;;;;;;;;-128.00;-1.00;-1.00;103150;1253;1004716;-72
2024/04/20 05:32:55;;;;;;;;;;;;;;;-128.00;-1.00;-1.00;103185;1253;1002349;-80
2024/04/20 05:35:23;;;;;;;;;;;;;;;-128.00;-1.00;-1.00;103169;1254;1010413;-76
2024/04/20 05:37:50;;;;;;;;;;;;;;;-128.00;-1.00;-1.00;103005;1254;1002733;-75
2024/04/20 05:40:17;;;;;;;;;;;;;;;-128.00;-1.00;-1.00;103192;1260;1003067;-76
2024/04/20 05:42:45;;;;;;;;;;;;;;;-128.00;-1.00;-1.00;103147;1253;1002787;-77
2024/04/20 05:45:16;;;;;;;;;;;;;;;-128.00;-1.00;-1.00;103252;1254;1003010;-72
2024/04/20 05:47:43;;;;;;;;;;;;;;;-128.00;-1.00;-1.00;103183;1253;1010104;-74
2024/04/20 05:50:11;;;;;;;;;;;;;;;-128.00;-1.00;-1.00;103164;1253;1002683;-75
2024/04/20 05:52:38;;;;;;;;;;;;;;;-128.00;-1.00;-1.00;103225;1254;1004143;-76
2024/04/20 05:55:06;;;;;;;;;;;;;;;-128.00;-1.00;-1.00;102826;1263;1002763;-75
2024/04/20 05:57:33;;;;;;;;;;;;;;;-128.00;-1.00;-1.00;103167;1254;1002621;-77
2024/04/20 06:00:02;;;;;;;;;;;;;;;-128.00;-1.00;-1.00;103226;1261;1003643;-78
2024/04/20 06:02:38;;;;;;;;;;;;;;;-128.00;-1.00;-1.00;103191;1261;1011003;-75
2024/04/20 06:05:05;;;;;;;;;;;;;;;-128.00;-1.00;-1.00;103150;1260;1006764;-74
2024/04/20 06:07:33;;;;;;;;;;;;;;;-128.00;-1.00;-1.00;103188;1260;1002843;-76
2024/04/20 06:10:00;;;;;;;;;;;;;;;-128.00;-1.00;-1.00;103214;1253;1003003;-76
2024/04/20 06:12:28;;;;;;;;;;;;;;;-128.00;-1.00;-1.00;103101;1257;1003273;-76
2024/04/20 06:14:55;;;;;;;;;;;;;;;-128.00;-1.00;-1.00;102965;1257;1002930;-75
2024/04/20 06:17:22;;;;;;;;;;;;;;;-128.00;-1.00;-1.00;102953;1256;1003634;-76
2024/04/20 06:19:50;;;;;;;;;;;;;;;-128.00;-1.00;-1.00;102771;1259;1004582;-76
2024/04/20 06:22:17;;;;;;;;;;;;;;;-128.00;-1.00;-1.00;102745;1265;1002981;-76
2024/04/20 06:24:47;;;;;;;;;;;;;;;-128.00;-1.00;-1.00;102664;1259;1003386;-80
2024/04/20 06:27:14;;;;;;;;;;;;;;;-128.00;-1.00;-1.00;102767;1265;1011941;-76
2024/04/20 06:29:42;;;;;;;;;;;;;;;-128.00;-1.00;-1.00;102815;1265;1002812;-75
2024/04/20 06:32:09;;;;;;;;;;;;;;;-128.00;-1.00;-1.00;102813;1265;1003047;-76
2024/04/20 06:34:36;;;;;;;;;;;;;;;-128.00;-1.00;-1.00;102770;1259;1003865;-75
2024/04/20 06:37:06;;;;;;;;;;;;;;;-128.00;-1.00;-1.00;102661;1260;1002694;-77
2024/04/20 06:39:33;;;;;;;;;;;;;;;-128.00;-1.00;-1.00;102742;1265;1011902;-78
2024/04/20 06:42:01;;;;;;;;;;;;;;;-128.00;-1.00;-1.00;102747;1265;1003100;-75
2024/04/20 06:44:28;;;;;;;;;;;;;;;-128.00;-1.00;-1.00;102887;1262;1002863;-75
2024/04/20 06:46:56;;;;;;;;;;;;;;;-128.00;-1.00;-1.00;103000;1259;1003007;-75
2024/04/20 06:49:24;;;;;;;;;;;;;;;-128.00;-1.00;-1.00;102759;1259;1003200;-77
2024/04/20 06:51:51;;;;;;;;;;;;;;;-128.00;-1.00;-1.00;103074;1255;1003934;-74
2024/04/20 06:54:19;;;;;;;;;;;;;;;-128.00;-1.00;-1.00;103181;1260;1002974;-75
2024/04/20 06:56:46;;;;;;;;;;;;;;;-128.00;-1.00;-1.00;103151;1256;1002790;-77
2024/04/20 06:59:13;;;;;;;;;;;;;;;-128.00;-1.00;-1.00;103170;1256;1005219;-75
2024/04/20 07:01:41;;;;;;;;;;;;;;;-128.00;-1.00;-1.00;103104;1255;1002789;-77
2024/04/20 07:04:08;;;;;;;;;;;;;;;-128.00;-1.00;-1.00;103154;1256;1002986;-76
2024/04/20 07:06:37;;;;;;;;;;;;;;;-128.00;-1.00;-1.00;103172;1260;1002735;-75
2024/04/20 07:09:05;;;;;;;;;;;;;;;-128.00;-1.00;-1.00;103161;1256;1012956;-77
2024/04/20 07:11:33;;;;;;;;;;;;;;;-128.00;-1.00;-1.00;103062;1255;1002697;-75
2024/04/20 07:14:00;;;;;;;;;;;;;;;-128.00;-1.00;-1.00;103179;1254;1002563;-75
2024/04/20 07:16:27;;;;;;;;;;;;;;;-128.00;-1.00;-1.00;103149;1254;1002797;-75
2024/04/20 07:18:55;;;;;;;;;;;;;;;-128.00;-1.00;-1.00;103187;1261;1002316;-76
2024/04/20 07:21:22;;;;;;;;;;;;;;;-128.00;-1.00;-1.00;103253;1256;1002887;-76
2024/04/20 07:23:49;;;;;;;;;;;;;;;-128.00;-1.00;-1.00;103204;1257;1004502;-75
2024/04/20 07:26:17;;;;;;;;;;;;;;;-128.00;-1.00;-1.00;103044;1257;1002562;-74
2024/04/20 07:28:44;;;;;;;;;;;;;;;-128.00;-1.00;-1.00;103136;1257;1004501;-75
2024/04/20 07:31:11;;;;;;;;;;;;;;;-128.00;-1.00;-1.00;103217;1257;1002643;-74
2024/04/20 07:33:39;;;;;;;;;;;;;;;-128.00;-1.00;-1.00;103232;1257;1003352;-75
2024/04/20 07:36:07;;;;;;;;;;;;;;;-128.00;-1.00;-1.00;103217;1257;1003235;-75
2024/04/20 07:38:36;;;;;;;;;;;;;;;-128.00;-1.00;-1.00;103188;1259;1011070;-75
2024/04/20 07:41:04;;;;;;;;;;;;;;;-128.00;-1.00;-1.00;103228;1257;1002509;-73
2024/04/20 07:43:32;;;;;;;;;;;;;;;-128.00;-1.00;-1.00;103148;1257;1013088;-75
2024/04/20 07:46:00;;;;;;;;;;;;;;;-128.00;-1.00;-1.00;103237;1256;1003252;-76
2024/04/20 07:48:27;;;;;;;;;;;;;;;-128.00;-1.00;-1.00;103190;1257;1004261;-73
2024/04/20 07:50:55;;;;;;;;;;;;;;;-128.00;-1.00;-1.00;102979;1253;1002672;-74
2024/04/20 07:53:22;;;;;;;;;;;;;;;-128.00;-1.00;-1.00;103278;1254;1002973;-74
2024/04/20 07:55:49;;;;;;;;;;;;;;;-128.00;-1.00;-1.00;103297;1253;1002566;-76
2024/04/20 07:58:17;;;;;;;;;;;;;;;-128.00;-1.00;-1.00;103354;1259;1003053;-76
2024/04/20 08:00:44;;;;;;;;;;;;;;;-128.00;-1.00;-1.00;103281;1254;1002129;-74
2024/04/20 08:03:12;;;;;;;;;;;;;;;-128.00;-1.00;-1.00;103264;1253;1003079;-76
2024/04/20 08:05:39;;;;;;;;;;;;;;;-128.00;-1.00;-1.00;103262;1261;1003103;-73
2024/04/20 08:08:06;;;;;;;;;;;;;;;-128.00;-1.00;-1.00;103302;1254;1003485;-76
2024/04/20 08:10:34;;;;;;;;;;;;;;;-128.00;-1.00;-1.00;103247;1253;1002746;-75
2024/04/20 08:13:01;;;;;;;;;;;;;;;-128.00;-1.00;-1.00;103311;1254;1002824;-73
2024/04/20 08:15:29;;;;;;;;;;;;;;;-128.00;-1.00;-1.00;103323;1254;1002715;-76
2024/04/20 08:17:56;;;;;;;;;;;;;;;-128.00;-1.00;-1.00;103331;1253;1002740;-74
2024/04/20 08:20:23;;;;;;;;;;;;;;;-128.00;-1.00;-1.00;103322;1253;1002995;-75
2024/04/20 08:22:51;;;;;;;;;;;;;;;-128.00;-1.00;-1.00;103323;1253;1004343;-76
2024/04/20 08:25:18;;;;;;;;;;;;;;;-128.00;-1.00;-1.00;103397;1254;1003072;-75
2024/04/20 08:27:45;;;;;;;;;;;;;;;-128.00;-1.00;-1.00;103342;1259;1002123;-76
2024/04/20 08:30:13;;;;;;;;;;;;;;;-128.00;-1.00;-1.00;103328;1259;1002162;-76
2024/04/20 08:32:40;;;;;;;;;;;;;;;-128.00;-1.00;-1.00;103366;1259;1002701;-76
2024/04/20 08:35:08;;;;;;;;;;;;;;;-128.00;-1.00;-1.00;103309;1259;1002686;-77
2024/04/20 08:37:37;;;;;;;;;;;;;;;-128.00;-1.00;-1.00;103241;1257;1002682;-75
2024/04/20 08:40:06;;;;;;;;;;;;;;;-128.00;-1.00;-1.00;103185;1256;1011092;-75
2024/04/20 08:42:33;;;;;;;;;;;;;;;-128.00;-1.00;-1.00;103219;1260;1010899;-76
2024/04/20 08:45:03;;;;;;;;;;;;;;;-128.00;-1.00;-1.00;103138;1253;1004155;-76
2024/04/20 08:47:30;;;;;;;;;;;;;;;-128.00;-1.00;-1.00;103150;1259;1012491;-76
2024/04/20 08:49:58;;;;;;;;;;;;;;;-128.00;-1.00;-1.00;103258;1253;1002436;-75
2024/04/20 08:52:26;;;;;;;;;;;;;;;-128.00;-1.00;-1.00;103222;1253;1002720;-75
2024/04/20 08:54:57;;;;;;;;;;;;;;;-128.00;-1.00;-1.00;103326;1259;1002913;-74
2024/04/20 08:57:24;;;;;;;;;;;;;;;-128.00;-1.00;-1.00;103237;1253;1013415;-75
2024/04/20 08:59:52;;;;;;;;;;;;;;;-128.00;-1.00;-1.00;103146;1259;1002395;-75
2024/04/20 09:02:25;;;;;;;;;;;;;;;-128.00;-1.00;-1.00;103206;1254;1002241;-77
2024/04/20 09:04:54;;;;;;;;;;;;;;;-128.00;-1.00;-1.00;103224;1253;1010940;-75
2024/04/20 09:07:23;;;;;;;;;;;;;;;-128.00;-1.00;-1.00;103293;1256;1003273;-78
2024/04/20 09:09:50;;;;;;;;;;;;;;;-128.00;-1.00;-1.00;103209;1253;1013208;-74
2024/04/20 09:12:18;;;;;;;;;;;;;;;-128.00;-1.00;-1.00;103384;1259;1002513;-76
2024/04/20 09:14:45;;;;;;;;;;;;;;;-128.00;-1.00;-1.00;103306;1253;1003206;-76
2024/04/20 09:17:12;;;;;;;;;;;;;;;-128.00;-1.00;-1.00;103261;1253;1003346;-75
2024/04/20 09:19:41;;;;;;;;;;;;;;;-128.00;-1.00;-1.00;103229;1260;1003041;-74
2024/04/20 09:22:10;;;;;;;;;;;;;;;-128.00;-1.00;-1.00;103309;1261;1013400;-76
2024/04/20 09:24:37;;;;;;;;;;;;;;;-128.00;-1.00;-1.00;102894;1254;1012923;-72
2024/04/20 09:27:06;;;;;;;;;;;;;;;-128.00;-1.00;-1.00;103305;1253;1002828;-76
2024/04/20 09:29:34;;;;;;;;;;;;;;;-128.00;-1.00;-1.00;103218;1253;1010208;-75
2024/04/20 09:32:01;;;;;;;;;;;;;;;-128.00;-1.00;-1.00;103222;1259;1002383;-76
2024/04/20 09:34:28;;;;;;;;;;;;;;;-128.00;-1.00;-1.00;103361;1254;1003219;-75
2024/04/20 09:36:56;;;;;;;;;;;;;;;-128.00;-1.00;-1.00;103290;1260;1002745;-77
2024/04/20 09:39:24;;;;;;;;;;;;;;;-128.00;-1.00;-1.00;103068;1253;1002967;-77
2024/04/20 09:41:52;;;;;;;;;;;;;;;-128.00;-1.00;-1.00;103230;1254;1011172;-76
2024/04/20 09:44:19;;;;;;;;;;;;;;;-128.00;-1.00;-1.00;103183;1260;1003163;-75
2024/04/20 09:46:47;;;;;;;;;;;;;;;-128.00;-1.00;-1.00;103210;1256;1003346;-75
2024/04/20 09:49:15;;;;;;;;;;;;;;;-128.00;-1.00;-1.00;103151;1256;1002679;-74
2024/04/20 09:51:45;;;;;;;;;;;;;;;-128.00;-1.00;-1.00;102832;1256;1012473;-75
2024/04/20 09:54:15;;;;;;;;;;;;;;;-128.00;-1.00;-1.00;103180;1256;1010398;-75
2024/04/20 09:56:42;;;;;;;;;;;;;;;-128.00;-1.00;-1.00;103167;1256;1010762;-74
2024/04/20 09:59:10;;;;;;;;;;;;;;;-128.00;-1.00;-1.00;103056;1257;1002673;-73
2024/04/20 10:01:37;;;;;;;;;;;;;;;-128.00;-1.00;-1.00;103089;1256;1003417;-75
2024/04/20 10:04:05;;;;;;;;;;;;;;;-128.00;-1.00;-1.00;103179;1261;1002418;-74
2024/04/20 10:06:32;;;;;;;;;;;;;;;-128.00;-1.00;-1.00;103087;1262;1002621;-74
2024/04/20 10:09:00;;;;;;;;;;;;;;;-128.00;-1.00;-1.00;103080;1257;1002824;-75
2024/04/20 10:11:27;;;;;;;;;;;;;;;-128.00;-1.00;-1.00;103126;1262;1003130;-77
2024/04/20 10:13:55;;;;;;;;;;;;;;;-128.00;-1.00;-1.00;103050;1254;1002814;-75
2024/04/20 10:16:22;;;;;;;;;;;;;;;-128.00;-1.00;-1.00;103272;1254;1003141;-76
2024/04/20 10:18:50;;;;;;;;;;;;;;;-128.00;-1.00;-1.00;103277;1254;1002249;-76
2024/04/20 10:21:17;;;;;;;;;;;;;;;-128.00;-1.00;-1.00;103203;1256;1004558;-76
2024/04/20 10:23:45;;;;;;;;;;;;;;;-128.00;-1.00;-1.00;103296;1256;1002719;-77
2024/04/20 10:26:12;;;;;;;;;;;;;;;-128.00;-1.00;-1.00;103197;1257;1003411;-77
2024/04/20 10:28:40;;;;;;;;;;;;;;;-128.00;-1.00;-1.00;103192;1260;1002575;-76
2024/04/20 10:31:07;;;;;;;;;;;;;;;-128.00;-1.00;-1.00;103136;1256;1002561;-76
2024/04/20 10:33:35;;;;;;;;;;;;;;;-128.00;-1.00;-1.00;103127;1261;1002671;-75
2024/04/20 10:36:09;;;;;;;;;;;;;;;-128.00;-1.00;-1.00;103190;1256;1013453;-75
2024/04/20 10:38:36;;;;;;;;;;;;;;;-128.00;-1.00;-1.00;103181;1256;1013021;-75
2024/04/20 10:41:12;;;;;;;;;;;;;;;-128.00;-1.00;-1.00;103164;1256;1003215;-75
2024/04/20 10:43:39;;;;;;;;;;;;;;;-128.00;-1.00;-1.00;103190;1261;1010162;-78
2024/04/20 10:46:08;;;;;;;;;;;;;;;-128.00;-1.00;-1.00;103156;1256;1002844;-76
2024/04/20 10:48:40;;;;;;;;;;;;;;;-128.00;-1.00;-1.00;103177;1256;1013330;-77
2024/04/20 10:51:11;;;;;;;;;;;;;;;-128.00;-1.00;-1.00;103191;1260;1012897;-77
2024/04/20 10:53:40;;;;;;;;;;;;;;;-128.00;-1.00;-1.00;103113;1259;1013575;-75
2024/04/20 10:56:08;;;;;;;;;;;;;;;-128.00;-1.00;-1.00;103251;1256;1009855;-76
2024/04/20 10:58:42;;;;;;;;;;;;;;;-128.00;-1.00;-1.00;103154;1256;1004120;-74
2024/04/20 11:01:09;;;;;;;;;;;;;;;-128.00;-1.00;-1.00;103183;1256;1013792;-77
2024/04/20 11:03:38;;;;;;;;;;;;;;;-128.00;-1.00;-1.00;103100;1256;1004048;-77
2024/04/20 11:06:06;;;;;;;;;;;;;;;-128.00;-1.00;-1.00;103197;1257;1012707;-75
2024/04/20 11:08:38;;;;;;;;;;;;;;;-128.00;-1.00;-1.00;103212;1262;1002477;-76
2024/04/20 11:11:06;;;;;;;;;;;;;;;-128.00;-1.00;-1.00;103156;1256;1010762;-76
2024/04/20 11:13:35;;;;;;;;;;;;;;;-128.00;-1.00;-1.00;103201;1256;1002105;-77
2024/04/20 11:16:02;;;;;;;;;;;;;;;-128.00;-1.00;-1.00;103188;1256;1013577;-76
2024/04/20 11:18:30;;;;;;;;;;;;;;;-128.00;-1.00;-1.00;103094;1256;1002881;-76
2024/04/20 11:20:57;;;;;;;;;;;;;;;-128.00;-1.00;-1.00;103182;1262;1003001;-75
2024/04/20 11:23:26;;;;;;;;;;;;;;;-128.00;-1.00;-1.00;103179;1260;1002574;-75
2024/04/20 11:25:54;;;;;;;;;;;;;;;-128.00;-1.00;-1.00;102883;1256;1013510;-78
2024/04/20 11:28:24;;;;;;;;;;;;;;;-128.00;-1.00;-1.00;103287;1260;1003246;-75
2024/04/20 11:30:52;;;;;;;;;;;;;;;-128.00;-1.00;-1.00;102877;1256;1012856;-75
2024/04/20 11:33:19;;;;;;;;;;;;;;;-128.00;-1.00;-1.00;103138;1256;1002702;-75
2024/04/20 11:35:51;;;;;;;;;;;;;;;-128.00;-1.00;-1.00;103214;1256;1004207;-77
2024/04/20 11:38:18;;;;;;;;;;;;;;;-128.00;-1.00;-1.00;103245;1256;1015863;-75
2024/04/20 11:40:46;;;;;;;;;;;;;;;-128.00;-1.00;-1.00;103354;1256;1003927;-76
2024/04/20 11:43:20;;;;;;;;;;;;;;;-128.00;-1.00;-1.00;103428;1256;1016029;-76
2024/04/20 11:45:50;;;;;;;;;;;;;;;-128.00;-1.00;-1.00;103387;1262;1009901;-77
2024/04/20 11:48:18;;;;;;;;;;;;;;;-128.00;-1.00;-1.00;103264;1256;1011237;-76
2024/04/20 11:50:50;;;;;;;;;;;;;;;-128.00;-1.00;-1.00;103118;1256;1012695;-76
2024/04/20 11:56:04;;;;;;;;;;;;;;;-128.00;-1.00;-1.00;103311;1260;1013051;-77
2024/04/20 11:58:31;;;;;;;;;;;;;;;-128.00;-1.00;-1.00;103265;1256;1002529;-75
2024/04/20 12:00:58;;;;;;;;;;;;;;;-128.00;-1.00;-1.00;105070;1256;1002525;-75
2024/04/20 12:03:26;;;;;;;;;;;;;;;-128.00;-1.00;-1.00;106587;1255;1004416;-74
2024/04/20 12:05:53;;;;;;;;;;;;;;;-128.00;-1.00;-1.00;106681;1256;1002643;-74
2024/04/20 12:11:52;;;;;;;;;;;;;;;-128.00;-1.00;-1.00;103136;1256;1010313;-76
2024/04/20 12:14:20;;;;;;;;;;;;;;;-128.00;-1.00;-1.00;103123;1256;1004348;-82
2024/04/20 12:16:47;;;;;;;;;;;;;;;-128.00;-1.00;-1.00;103165;1256;1013304;-80
2024/04/20 12:19:14;;;;;;;;;;;;;;;-128.00;-1.00;-1.00;103012;1257;1003404;-78
2024/04/20 12:21:42;;;;;;;;;;;;;;;-128.00;-1.00;-1.00;103193;1255;1003131;-77
2024/04/20 12:24:10;;;;;;;;;;;;;;;-128.00;-1.00;-1.00;103197;1256;1002464;-76
2024/04/20 12:26:37;;;;;;;;;;;;;;;-128.00;-1.00;-1.00;103223;1260;1002974;-77
2024/04/20 12:29:04;;;;;;;;;;;;;;;-128.00;-1.00;-1.00;103209;1257;1002200;-77
2024/04/20 12:31:32;;;;;;;;;;;;;;;-128.00;-1.00;-1.00;103180;1257;1003194;-77
2024/04/20 12:34:00;;;;;;;;;;;;;;;-128.00;-1.00;-1.00;103145;1256;1002917;-78
2024/04/20 12:36:28;;;;;;;;;;;;;;;-128.00;-1.00;-1.00;103218;1256;1012611;-76
2024/04/20 12:38:55;;;;;;;;;;;;;;;-128.00;-1.00;-1.00;103146;1257;1002614;-77